Time;durP1;ratioP1;P1;durP2;ratioP2;P2;SDS_P1;SDS_P2;PMS_P1;PMS_P2;Temp;Humidity;BMP_temperature;BMP_pressure;BME280_temperature;BME280_humidity;BME280_pressure;Samples;Min_cycle;Max_cycle;Signal;HPM_P1;HPM_P2
2023/04/15 00:01:58;;;;;;;13.00;11.87;;;5.10;99.90;;;;;;5150818;27;20462;-69
2023/04/15 00:04:25;;;;;;;10.30;9.90;;;5.10;99.90;;;;;;5153354;27;20455;-69
2023/04/15 00:06:53;;;;;;;11.60;11.20;;;5.10;99.90;;;;;;5153254;27;20451;-69
2023/04/15 00:09:20;;;;;;;10.80;10.40;;;5.20;99.90;;;;;;5148067;27;20523;-68
2023/04/15 00:11:48;;;;;;;10.53;10.13;;;5.20;99.90;;;;;;5144424;27;20460;-68
2023/04/15 00:14:17;;;;;;;9.90;9.60;;;5.20;99.90;;;;;;5152865;27;20460;-68
2023/04/15 00:16:43;;;;;;;10.60;10.20;;;5.10;99.90;;;;;;5152839;27;20542;-68
2023/04/15 00:19:11;;;;;;;10.70;10.30;;;5.00;99.90;;;;;;5152799;27;20466;-69
2023/04/15 00:21:38;;;;;;;10.47;10.07;;;5.10;99.90;;;;;;5152864;27;20496;-69
2023/04/15 00:24:05;;;;;;;10.50;10.10;;;5.20;99.90;;;;;;5150408;27;20460;-68
2023/04/15 00:26:32;;;;;;;10.70;10.30;;;5.20;99.90;;;;;;5144022;27;20457;-68
2023/04/15 00:28:59;;;;;;;21.57;10.60;;;5.10;99.90;;;;;;5153096;27;20461;-68
2023/04/15 00:31:28;;;;;;;10.37;9.97;;;5.30;99.90;;;;;;5152843;27;20458;-69
2023/04/15 00:33:55;;;;;;;9.67;9.37;;;5.40;99.90;;;;;;5152957;27;20455;-69
2023/04/15 00:36:22;;;;;;;10.60;10.10;;;5.60;99.90;;;;;;5152594;27;20456;-68
2023/04/15 00:38:49;;;;;;;9.90;9.60;;;5.60;99.90;;;;;;5150653;27;20456;-68
2023/04/15 00:41:16;;;;;;;10.40;10.00;;;5.70;99.90;;;;;;5147816;27;20584;-68
2023/04/15 00:43:43;;;;;;;10.33;9.93;;;5.70;99.90;;;;;;5152507;27;20582;-68
2023/04/15 00:46:12;;;;;;;9.97;9.63;;;5.80;99.90;;;;;;5150874;27;20459;-69
2023/04/15 00:48:41;;;;;;;10.30;9.90;;;5.70;99.90;;;;;;5149450;27;20446;-69
2023/04/15 00:51:08;;;;;;;10.30;9.90;;;5.60;99.90;;;;;;5149220;27;20465;-69
2023/04/15 00:53:35;;;;;;;9.80;9.50;;;5.50;99.90;;;;;;5147638;27;20447;-69
2023/04/15 00:56:02;;;;;;;10.50;10.10;;;5.40;99.90;;;;;;5150381;27;20463;-69
2023/04/15 00:58:30;;;;;;;10.90;10.50;;;5.40;99.90;;;;;;5152562;27;20489;-68
2023/04/15 01:00:58;;;;;;;10.50;10.10;;;5.40;99.90;;;;;;5151497;27;20926;-69
2023/04/15 01:03:25;;;;;;;10.60;10.20;;;5.30;99.90;;;;;;5151758;27;20470;-68
2023/04/15 01:05:57;;;;;;;10.70;10.30;;;5.30;99.90;;;;;;5149335;27;20470;-68
2023/04/15 01:08:26;;;;;;;10.87;10.47;;;5.20;99.90;;;;;;5149789;27;20474;-69
2023/04/15 01:10:54;;;;;;;10.23;9.83;;;5.20;99.90;;;;;;5142970;27;20454;-69
2023/04/15 01:13:21;;;;;;;10.57;10.17;;;5.20;99.90;;;;;;5151241;27;20458;-68
2023/04/15 01:15:48;;;;;;;10.90;10.50;;;5.10;99.90;;;;;;5137896;27;20451;-69
2023/04/15 01:18:16;;;;;;;10.80;10.40;;;5.10;99.90;;;;;;5152001;27;20629;-68
2023/04/15 01:20:43;;;;;;;10.43;10.03;;;5.00;99.90;;;;;;5144439;27;20554;-69
2023/04/15 01:23:12;;;;;;;10.93;10.53;;;4.90;99.90;;;;;;5151970;27;20457;-69
2023/04/15 01:25:42;;;;;;;12.10;11.60;;;4.90;99.90;;;;;;5151848;27;20459;-68
2023/04/15 01:28:09;;;;;;;10.67;10.27;;;4.80;99.90;;;;;;5152086;27;20549;-68
2023/04/15 01:30:36;;;;;;;11.17;10.77;;;4.80;99.90;;;;;;5147230;27;20487;-67
2023/04/15 01:33:03;;;;;;;11.07;10.67;;;4.80;99.90;;;;;;5142619;27;21075;-68
2023/04/15 01:35:31;;;;;;;11.10;10.70;;;4.70;99.90;;;;;;5148451;27;20462;-69
2023/04/15 01:38:05;;;;;;;10.57;10.17;;;4.60;99.90;;;;;;5146099;27;20457;-68
2023/04/15 01:40:32;;;;;;;10.93;10.53;;;4.50;99.90;;;;;;5151940;27;20479;-69
2023/04/15 01:43:01;;;;;;;11.10;10.70;;;4.40;99.90;;;;;;5141296;27;20823;-69
2023/04/15 01:45:28;;;;;;;11.20;10.80;;;4.30;99.90;;;;;;5142640;27;20460;-69
2023/04/15 01:47:56;;;;;;;10.40;10.00;;;4.30;99.90;;;;;;5151174;27;20475;-68
2023/04/15 01:50:22;;;;;;;11.40;11.00;;;4.20;99.90;;;;;;5151203;27;20472;-69
2023/04/15 01:52:49;;;;;;;11.40;11.00;;;4.20;99.90;;;;;;5151297;27;20794;-68
2023/04/15 01:55:16;;;;;;;10.93;10.53;;;4.20;99.90;;;;;;5151133;27;20487;-69
2023/04/15 01:57:43;;;;;;;10.30;9.90;;;4.20;99.90;;;;;;5144921;27;20467;-68
2023/04/15 02:00:12;;;;;;;10.77;10.37;;;4.10;99.90;;;;;;5151392;27;20515;-69
2023/04/15 02:02:39;;;;;;;9.90;9.60;;;4.00;99.90;;;;;;5148518;27;20828;-68
2023/04/15 02:05:07;;;;;;;10.30;9.90;;;4.00;99.90;;;;;;5150891;27;20548;-69
2023/04/15 02:07:34;;;;;;;10.53;10.13;;;3.90;99.90;;;;;;5137088;27;20500;-68
2023/04/15 02:10:02;;;;;;;9.97;9.67;;;3.70;99.90;;;;;;5143242;27;21048;-69
2023/04/15 02:12:30;;;;;;;10.47;10.07;;;3.70;99.90;;;;;;5150653;27;20942;-68
2023/04/15 02:14:57;;;;;;;10.60;10.20;;;3.60;99.90;;;;;;5150544;27;20832;-68
2023/04/15 02:17:26;;;;;;;10.90;10.50;;;3.60;99.90;;;;;;5149343;27;20927;-68
2023/04/15 02:19:53;;;;;;;10.37;9.97;;;3.60;99.90;;;;;;5148862;27;20455;-68
2023/04/15 02:22:19;;;;;;;10.20;9.80;;;3.70;99.90;;;;;;5142168;27;20495;-68
2023/04/15 02:24:46;;;;;;;10.50;10.10;;;3.60;99.90;;;;;;5144309;27;20453;-68
2023/04/15 02:27:17;;;;;;;9.63;9.33;;;3.50;99.90;;;;;;5148992;27;20494;-67
2023/04/15 02:29:45;;;;;;;9.50;9.20;;;3.50;99.90;;;;;;5149275;27;20487;-68
2023/04/15 02:32:11;;;;;;;9.30;9.00;;;3.40;99.90;;;;;;5148767;27;20538;-68
2023/04/15 02:34:41;;;;;;;9.93;9.63;;;3.30;99.90;;;;;;5148890;27;20479;-69
2023/04/15 02:37:08;;;;;;;10.50;10.10;;;3.30;99.90;;;;;;5143030;27;20460;-68
2023/04/15 02:39:36;;;;;;;42.97;20.80;;;3.30;99.90;;;;;;5148281;27;20464;-68
2023/04/15 02:42:03;;;;;;;9.50;9.20;;;3.30;99.90;;;;;;5148777;27;20581;-68
2023/04/15 02:44:31;;;;;;;9.70;9.40;;;3.10;99.90;;;;;;5149928;27;20463;-69
2023/04/15 02:46:58;;;;;;;9.67;9.37;;;3.10;99.90;;;;;;5149760;27;20455;-68
2023/04/15 02:49:25;;;;;;;10.07;9.73;;;2.90;99.90;;;;;;5143485;27;20467;-68
2023/04/15 02:51:54;;;;;;;9.20;8.90;;;2.90;99.90;;;;;;5147161;27;20463;-68
2023/04/15 02:54:22;;;;;;;9.13;8.83;;;2.80;99.90;;;;;;5149853;27;20511;-69
2023/04/15 02:56:49;;;;;;;59.17;12.90;;;2.80;99.90;;;;;;5149633;27;20467;-68
2023/04/15 02:59:16;;;;;;;9.40;9.10;;;2.90;99.90;;;;;;5149991;27;20463;-68
2023/04/15 03:01:43;;;;;;;9.73;9.43;;;2.90;99.90;;;;;;5142514;27;20488;-68
2023/04/15 03:04:11;;;;;;;10.50;10.10;;;2.90;99.90;;;;;;5147238;27;20455;-68
2023/04/15 03:06:37;;;;;;;9.30;9.00;;;2.80;99.90;;;;;;5142300;27;20459;-69
2023/04/15 03:09:06;;;;;;;9.03;8.73;;;2.90;99.90;;;;;;5149657;27;20460;-68
2023/04/15 03:11:34;;;;;;;9.20;8.90;;;2.90;99.90;;;;;;5149894;27;20858;-68
2023/04/15 03:14:00;;;;;;;8.50;8.20;;;2.80;99.90;;;;;;5148333;27;20467;-68
2023/04/15 03:16:27;;;;;;;9.40;9.10;;;2.70;99.90;;;;;;5147419;27;20848;-68
2023/04/15 03:18:55;;;;;;;9.50;9.20;;;2.70;99.90;;;;;;5149894;27;20467;-67
2023/04/15 03:21:22;;;;;;;9.00;8.70;;;2.70;99.90;;;;;;5145881;27;20483;-68
2023/04/15 03:23:49;;;;;;;9.23;8.93;;;2.70;99.90;;;;;;5134887;27;20452;-68
2023/04/15 03:26:27;;;;;;;9.33;9.03;;;2.60;99.90;;;;;;5149621;27;20473;-68
2023/04/15 03:28:54;;;;;;;9.33;9.03;;;2.60;99.90;;;;;;5144360;27;20903;-68
2023/04/15 03:31:21;;;;;;;9.53;9.23;;;2.60;99.90;;;;;;5136774;27;20463;-68
2023/04/15 03:33:48;;;;;;;9.90;9.60;;;2.70;99.90;;;;;;5149999;27;20463;-68
2023/04/15 03:36:16;;;;;;;9.23;8.93;;;2.70;99.90;;;;;;5149133;27;20455;-68
2023/04/15 03:38:43;;;;;;;9.10;8.80;;;2.60;99.90;;;;;;5153912;27;20455;-68
2023/04/15 03:41:10;;;;;;;9.60;9.30;;;2.60;99.90;;;;;;5153749;27;20486;-69
2023/04/15 03:43:38;;;;;;;11.53;11.13;;;2.60;99.90;;;;;;5147221;27;20508;-69
2023/04/15 03:46:05;;;;;;;9.70;9.40;;;2.60;99.90;;;;;;5144501;27;20459;-68
2023/04/15 03:48:31;;;;;;;9.70;9.40;;;2.60;99.90;;;;;;5153530;27;20451;-68
2023/04/15 03:50:58;;;;;;;9.80;9.50;;;2.60;99.90;;;;;;5153329;27;20463;-68
2023/04/15 03:53:25;;;;;;;10.30;9.90;;;2.60;99.90;;;;;;5153740;27;20447;-68
2023/04/15 03:55:52;;;;;;;9.43;9.13;;;2.50;99.90;;;;;;5148839;27;20753;-67
2023/04/15 03:58:19;;;;;;;9.70;9.40;;;2.50;99.90;;;;;;5152728;27;20482;-68
2023/04/15 04:00:48;;;;;;;10.30;9.90;;;2.60;99.90;;;;;;5153075;27;20852;-69
2023/04/15 04:03:15;;;;;;;9.90;9.60;;;2.50;99.90;;;;;;5152648;27;20462;-68
2023/04/15 04:05:43;;;;;;;10.80;10.40;;;2.50;99.90;;;;;;5153032;27;20864;-68
2023/04/15 04:08:12;;;;;;;10.33;9.93;;;2.50;99.90;;;;;;5145413;27;20466;-68
2023/04/15 04:10:40;;;;;;;10.00;9.70;;;2.50;99.90;;;;;;5143698;27;20508;-68
2023/04/15 04:13:07;;;;;;;9.53;9.23;;;2.50;99.90;;;;;;5153349;27;20458;-68
2023/04/15 04:15:33;;;;;;;9.70;9.40;;;2.50;99.90;;;;;;5152996;27;20490;-69
2023/04/15 04:18:03;;;;;;;9.73;9.43;;;2.50;99.90;;;;;;5153062;27;20551;-69
2023/04/15 04:20:31;;;;;;;10.03;9.73;;;2.50;99.90;;;;;;5138133;27;20466;-68
2023/04/15 04:22:59;;;;;;;10.40;10.00;;;2.50;99.90;;;;;;5148827;27;20497;-68
2023/04/15 04:25:26;;;;;;;9.80;9.40;;;2.60;99.90;;;;;;5153265;27;20459;-67
2023/04/15 04:27:54;;;;;;;10.40;9.97;;;2.80;99.90;;;;;;5153094;27;20508;-67
2023/04/15 04:30:21;;;;;;;8.97;8.67;;;3.20;99.90;;;;;;5152394;27;20467;-67
2023/04/15 04:32:50;;;;;;;8.80;8.50;;;3.40;99.90;;;;;;5152588;27;20502;-67
2023/04/15 04:35:17;;;;;;;9.07;8.77;;;3.50;99.90;;;;;;5150180;27;20519;-68
2023/04/15 04:37:45;;;;;;;11.93;11.43;;;3.50;99.90;;;;;;5150015;27;20536;-68
2023/04/15 04:40:12;;;;;;;9.40;9.10;;;3.50;99.90;;;;;;5152613;27;20882;-67
2023/04/15 04:42:39;;;;;;;9.67;9.37;;;3.50;99.90;;;;;;5152202;27;21127;-68
2023/04/15 04:45:07;;;;;;;9.90;9.60;;;3.60;99.90;;;;;;5152371;27;20454;-68
2023/04/15 04:47:34;;;;;;;9.73;9.43;;;3.50;99.90;;;;;;5152505;27;20485;-67
2023/04/15 04:50:02;;;;;;;10.87;10.47;;;3.60;99.90;;;;;;5145769;27;20464;-69
2023/04/15 04:52:31;;;;;;;10.23;9.83;;;3.60;99.90;;;;;;5149894;27;20491;-68
2023/04/15 04:54:58;;;;;;;8.70;8.40;;;3.70;99.90;;;;;;5152288;27;20905;-69
2023/04/15 04:57:25;;;;;;;8.83;8.53;;;3.80;99.90;;;;;;5151843;27;21014;-68
2023/04/15 04:59:52;;;;;;;9.90;9.50;;;3.90;99.90;;;;;;5152201;27;20980;-68
2023/04/15 05:02:18;;;;;;;8.73;8.33;;;4.00;99.90;;;;;;5149513;27;21009;-67
2023/04/15 05:04:45;;;;;;;8.33;7.97;;;4.00;99.90;;;;;;5148790;27;20468;-68
2023/04/15 05:07:12;;;;;;;8.60;8.30;;;4.20;99.90;;;;;;5149645;27;20461;-68
2023/04/15 05:09:40;;;;;;;9.70;9.10;;;4.20;99.90;;;;;;5136785;27;20460;-68
2023/04/15 05:12:07;;;;;;;8.00;7.73;;;4.20;99.90;;;;;;5151221;27;20537;-69
2023/04/15 05:14:34;;;;;;;7.93;7.63;;;4.30;99.90;;;;;;5145554;27;20560;-68
2023/04/15 05:17:01;;;;;;;8.20;7.90;;;4.40;99.90;;;;;;5151767;27;20447;-67
2023/04/15 05:19:28;;;;;;;8.87;8.57;;;4.40;99.90;;;;;;5152024;27;20463;-68
2023/04/15 05:21:55;;;;;;;9.37;9.03;;;4.50;99.90;;;;;;5137722;27;20554;-68
2023/04/15 05:24:22;;;;;;;11.43;10.80;;;4.60;99.90;;;;;;5151768;27;20459;-67
2023/04/15 05:26:51;;;;;;;7.70;7.50;;;4.70;99.90;;;;;;5137023;27;20451;-68
2023/04/15 05:29:18;;;;;;;8.37;8.07;;;4.80;99.90;;;;;;5145575;27;20513;-69
2023/04/15 05:31:45;;;;;;;8.67;8.37;;;4.80;99.90;;;;;;5151404;27;20459;-68
2023/04/15 05:34:12;;;;;;;8.30;8.00;;;4.90;99.90;;;;;;5148829;27;20466;-68
2023/04/15 05:36:39;;;;;;;8.43;8.13;;;5.00;99.90;;;;;;5143021;27;20545;-69
2023/04/15 05:39:06;;;;;;;7.17;6.97;;;5.10;99.90;;;;;;5151374;27;20459;-68
2023/04/15 05:41:33;;;;;;;7.40;7.20;;;5.20;99.90;;;;;;5151526;27;20483;-68
2023/04/15 05:44:02;;;;;;;9.53;9.10;;;5.30;99.90;;;;;;5151326;27;21063;-68
2023/04/15 05:46:28;;;;;;;9.37;9.07;;;5.40;99.90;;;;;;5150098;27;20474;-68
2023/04/15 05:48:55;;;;;;;7.40;7.20;;;5.50;99.90;;;;;;5146651;27;21105;-68
2023/04/15 05:51:22;;;;;;;8.10;7.80;;;5.60;99.90;;;;;;5149854;27;20459;-68
2023/04/15 05:53:49;;;;;;;8.10;7.80;;;5.70;99.90;;;;;;5139006;27;20485;-69
2023/04/15 05:56:17;;;;;;;8.90;8.60;;;5.80;99.90;;;;;;5145292;27;20519;-69
2023/04/15 05:58:45;;;;;;;8.20;7.90;;;5.90;99.90;;;;;;5150445;27;20467;-69
2023/04/15 06:01:14;;;;;;;8.50;8.20;;;6.00;99.90;;;;;;5150938;27;20468;-68
2023/04/15 06:03:41;;;;;;;7.80;7.60;;;6.10;99.90;;;;;;5150748;27;20451;-68
2023/04/15 06:06:08;;;;;;;7.90;7.63;;;6.30;99.90;;;;;;5150867;27;20871;-67
2023/04/15 06:08:36;;;;;;;8.70;8.40;;;6.50;99.90;;;;;;5151188;27;20526;-69
2023/04/15 06:11:03;;;;;;;7.70;7.50;;;6.60;99.90;;;;;;5145447;27;20894;-68
2023/04/15 06:13:29;;;;;;;9.13;8.77;;;6.80;99.90;;;;;;5151092;27;20456;-67
2023/04/15 06:15:56;;;;;;;9.47;9.03;;;6.80;99.90;;;;;;5151023;27;20481;-69
2023/04/15 06:18:25;;;;;;;8.97;8.57;;;7.00;99.90;;;;;;5150323;27;20483;-68
2023/04/15 06:20:52;;;;;;;10.83;10.23;;;7.00;99.90;;;;;;5149406;27;20458;-68
2023/04/15 06:23:19;;;;;;;10.40;9.60;;;7.20;99.90;;;;;;5150739;27;20494;-68
2023/04/15 06:25:47;;;;;;;9.30;9.00;;;7.30;99.90;;;;;;5146455;27;20922;-68
2023/04/15 06:28:13;;;;;;;9.90;9.50;;;7.50;99.90;;;;;;5150996;27;20811;-68
2023/04/15 06:30:42;;;;;;;9.73;9.37;;;7.70;99.90;;;;;;5149840;27;20459;-69
2023/04/15 06:33:09;;;;;;;10.57;10.17;;;7.80;99.90;;;;;;5150219;27;20467;-69
2023/04/15 06:35:39;;;;;;;10.17;9.77;;;8.00;99.90;;;;;;5150100;27;20928;-68
2023/04/15 06:38:06;;;;;;;12.27;11.77;;;8.10;99.90;;;;;;5150617;27;20454;-68
2023/04/15 06:40:34;;;;;;;10.30;9.90;;;8.00;99.90;;;;;;5136947;27;20537;-68
2023/04/15 06:43:01;;;;;;;10.30;9.90;;;8.20;99.90;;;;;;5142293;27;20494;-68
2023/04/15 06:45:28;;;;;;;12.67;12.07;;;8.20;99.90;;;;;;5146310;27;20478;-70
2023/04/15 06:47:55;;;;;;;11.77;11.27;;;8.20;99.90;;;;;;5149799;27;20961;-68
2023/04/15 06:50:22;;;;;;;10.93;10.53;;;8.20;99.90;;;;;;5144630;27;20460;-68
2023/04/15 06:52:50;;;;;;;14.57;13.87;;;8.30;99.90;;;;;;5146038;27;20507;-69
2023/04/15 06:55:17;;;;;;;11.40;11.00;;;8.30;99.90;;;;;;5150272;27;20491;-68
2023/04/15 06:57:44;;;;;;;14.63;13.83;;;8.30;99.90;;;;;;5141359;27;20464;-68
2023/04/15 07:00:12;;;;;;;10.67;10.27;;;8.30;99.90;;;;;;5149397;27;20455;-68
2023/04/15 07:02:39;;;;;;;16.20;14.07;;;8.30;99.90;;;;;;5147750;27;21031;-68
2023/04/15 07:05:07;;;;;;;11.90;11.40;;;8.30;99.90;;;;;;5150188;27;21358;-68
2023/04/15 07:07:34;;;;;;;12.50;11.90;;;8.40;99.90;;;;;;5149731;27;20555;-69
2023/04/15 07:10:03;;;;;;;14.97;13.83;;;8.50;99.90;;;;;;5142620;27;20463;-69
2023/04/15 07:12:30;;;;;;;13.30;12.70;;;8.50;99.90;;;;;;5139976;27;20538;-69
2023/04/15 07:14:57;;;;;;;14.07;13.03;;;8.60;99.90;;;;;;5142256;27;20928;-68
2023/04/15 07:17:24;;;;;;;12.40;11.50;;;8.60;99.90;;;;;;5149737;27;20455;-68
2023/04/15 07:19:51;;;;;;;12.00;11.10;;;8.70;99.90;;;;;;5150309;27;20503;-69
2023/04/15 07:22:18;;;;;;;12.90;12.20;;;8.90;99.90;;;;;;5149738;27;20520;-68
2023/04/15 07:24:45;;;;;;;10.60;10.20;;;8.90;99.90;;;;;;5150549;27;20539;-68
2023/04/15 07:27:14;;;;;;;12.37;11.67;;;9.10;99.90;;;;;;5150169;27;20463;-68
2023/04/15 07:29:41;;;;;;;11.70;11.23;;;9.20;99.90;;;;;;5148860;27;20946;-69
2023/04/15 07:32:09;;;;;;;12.43;11.67;;;9.50;99.90;;;;;;5148288;27;20450;-69
2023/04/15 07:34:37;;;;;;;14.13;13.33;;;9.70;99.90;;;;;;5146583;27;20494;-68
2023/04/15 07:37:04;;;;;;;13.50;12.50;;;9.90;99.90;;;;;;5143781;27;20462;-68
2023/04/15 07:39:31;;;;;;;10.33;9.93;;;9.90;99.90;;;;;;5138242;27;20459;-69
2023/04/15 07:41:58;;;;;;;12.27;11.77;;;10.10;99.90;;;;;;5149042;27;20471;-68
2023/04/15 07:44:28;;;;;;;13.50;12.17;;;10.30;99.90;;;;;;5149741;27;20562;-68
2023/04/15 07:46:55;;;;;;;11.97;11.43;;;10.40;99.90;;;;;;5149898;27;20447;-69
2023/04/15 07:49:22;;;;;;;13.57;12.70;;;10.60;99.90;;;;;;5150393;27;20562;-69
2023/04/15 07:51:50;;;;;;;12.53;11.73;;;10.90;99.90;;;;;;5150198;27;20456;-68
2023/04/15 07:54:17;;;;;;;11.60;11.20;;;11.00;99.90;;;;;;5150157;27;20487;-69
2023/04/15 07:56:44;;;;;;;13.53;11.87;;;11.00;99.90;;;;;;5141704;27;20509;-69
2023/04/15 07:59:12;;;;;;;14.30;13.50;;;11.20;99.90;;;;;;5149940;27;20463;-69
2023/04/15 08:01:40;;;;;;;13.20;12.37;;;11.20;99.90;;;;;;5145539;27;20463;-69
2023/04/15 08:04:06;;;;;;;15.30;14.30;;;11.50;99.90;;;;;;5149516;27;21080;-69
2023/04/15 08:06:33;;;;;;;14.33;13.47;;;11.60;99.90;;;;;;5149728;27;20536;-69
2023/04/15 08:09:01;;;;;;;15.30;14.40;;;11.50;99.90;;;;;;5147831;27;20542;-70
2023/04/15 08:11:27;;;;;;;12.10;11.60;;;11.30;99.90;;;;;;5144261;27;20456;-69
2023/04/15 08:13:54;;;;;;;12.00;11.50;;;11.40;99.90;;;;;;5150009;27;20463;-69
2023/04/15 08:16:23;;;;;;;13.40;12.80;;;11.60;99.90;;;;;;5149602;27;20456;-69
2023/04/15 08:18:52;;;;;;;22.13;13.30;;;11.80;99.90;;;;;;5149514;27;20997;-69
2023/04/15 08:21:20;;;;;;;17.10;15.90;;;11.70;99.90;;;;;;5143674;27;20528;-69
2023/04/15 08:23:49;;;;;;;14.00;13.40;;;11.90;99.90;;;;;;5150745;27;20490;-69
2023/04/15 08:26:16;;;;;;;12.70;12.20;;;11.90;99.90;;;;;;5152177;27;20474;-69
2023/04/15 08:28:44;;;;;;;15.33;14.60;;;11.80;99.90;;;;;;5152210;27;20503;-69
2023/04/15 08:31:11;;;;;;;15.40;14.50;;;12.10;99.90;;;;;;5151870;27;20459;-69
2023/04/15 08:33:39;;;;;;;14.07;13.47;;;12.40;99.90;;;;;;5151686;27;20484;-69
2023/04/15 08:36:08;;;;;;;14.87;14.17;;;12.30;99.90;;;;;;5152255;27;20454;-69
2023/04/15 08:38:36;;;;;;;13.87;13.20;;;12.50;99.90;;;;;;5153283;27;20956;-69
2023/04/15 08:41:13;;;;;;;14.63;13.93;;;12.50;99.90;;;;;;5153257;27;21022;-69
2023/04/15 08:43:46;;;;;;;16.73;15.57;;;12.70;99.90;;;;;;5153082;27;20490;-69
2023/04/15 08:46:15;;;;;;;14.67;13.97;;;12.60;99.90;;;;;;5153023;27;20534;-69
2023/04/15 08:48:43;;;;;;;13.67;12.97;;;12.80;99.90;;;;;;5152877;27;20985;-69
2023/04/15 08:51:14;;;;;;;14.23;13.63;;;12.90;99.90;;;;;;5153574;27;20511;-69
2023/04/15 08:53:42;;;;;;;13.87;13.13;;;12.70;99.90;;;;;;5153069;27;20885;-69
2023/04/15 08:56:10;;;;;;;14.93;14.23;;;13.00;99.90;;;;;;5153057;27;20508;-69
2023/04/15 08:58:38;;;;;;;16.03;15.07;;;13.20;99.90;;;;;;5137434;27;20658;-69
2023/04/15 09:01:06;;;;;;;15.37;14.47;;;13.50;99.90;;;;;;5148453;27;20447;-70
2023/04/15 09:03:34;;;;;;;16.67;15.17;;;13.80;99.90;;;;;;5152827;27;20491;-69
2023/04/15 09:06:03;;;;;;;15.93;15.07;;;13.60;99.90;;;;;;5152782;27;20455;-69
2023/04/15 09:08:34;;;;;;;16.37;15.47;;;13.70;99.90;;;;;;5152826;27;20511;-70
2023/04/15 09:11:02;;;;;;;16.20;15.20;;;13.90;99.90;;;;;;5152610;27;20862;-70
2023/04/15 09:13:29;;;;;;;16.43;15.63;;;13.60;99.90;;;;;;5152862;27;20823;-69
2023/04/15 09:15:57;;;;;;;14.60;13.90;;;13.90;99.90;;;;;;5152647;27;20475;-70
2023/04/15 09:18:30;;;;;;;16.77;15.77;;;14.40;99.90;;;;;;5152784;27;20455;-69
2023/04/15 09:21:05;;;;;;;15.13;14.43;;;14.60;99.90;;;;;;5152534;27;20855;-69
2023/04/15 09:23:33;;;;;;;15.47;14.70;;;14.70;99.90;;;;;;5152648;27;20494;-70
2023/04/15 09:26:01;;;;;;;15.07;14.37;;;14.70;99.90;;;;;;5152378;27;20459;-69
2023/04/15 09:28:28;;;;;;;15.30;14.57;;;14.80;99.90;;;;;;5152086;27;20565;-70
2023/04/15 09:30:56;;;;;;;17.60;16.60;;;14.90;99.90;;;;;;5152300;27;20527;-69
2023/04/15 09:33:23;;;;;;;18.23;17.03;;;15.10;99.90;;;;;;5152239;27;20538;-69
2023/04/15 09:36:01;;;;;;;15.13;14.33;;;14.30;99.90;;;;;;5150011;27;20467;-69
2023/04/15 09:38:28;;;;;;;16.27;15.40;;;14.00;99.90;;;;;;5152427;27;20467;-69
2023/04/15 09:40:57;;;;;;;15.23;14.43;;;14.20;99.90;;;;;;5152268;27;20467;-69
2023/04/15 09:43:36;;;;;;;15.40;14.70;;;14.40;99.90;;;;;;5152088;27;20516;-70
2023/04/15 09:46:05;;;;;;;16.53;15.63;;;14.50;99.90;;;;;;5152004;27;20451;-70
2023/04/15 09:48:31;;;;;;;15.00;14.30;;;14.70;99.90;;;;;;5152161;27;20470;-70
2023/04/15 09:51:00;;;;;;;16.50;15.63;;;14.50;99.90;;;;;;5151880;27;20463;-69
2023/04/15 09:53:28;;;;;;;15.90;15.20;;;14.30;99.90;;;;;;5151729;27;20985;-70
2023/04/15 09:55:57;;;;;;;15.47;14.67;;;14.20;99.90;;;;;;5151919;27;20542;-70
2023/04/15 09:58:26;;;;;;;15.60;14.90;;;14.50;99.90;;;;;;5144483;27;20451;-70
2023/04/15 10:00:55;;;;;;;15.53;14.83;;;14.80;99.90;;;;;;5151749;27;20458;-70
2023/04/15 10:03:23;;;;;;;15.30;14.57;;;14.80;99.90;;;;;;5151614;27;20493;-70
2023/04/15 10:05:52;;;;;;;14.87;14.17;;;15.20;99.90;;;;;;5151432;27;20547;-70
2023/04/15 10:08:20;;;;;;;15.23;14.63;;;15.70;99.90;;;;;;5151679;27;20501;-69
2023/04/15 10:10:48;;;;;;;16.40;15.60;;;15.50;99.90;;;;;;5138152;27;20542;-69
2023/04/15 10:13:18;;;;;;;16.97;16.07;;;15.50;99.90;;;;;;5151339;27;20447;-70
2023/04/15 10:15:50;;;;;;;15.67;14.87;;;15.00;99.90;;;;;;5151387;27;20455;-70
2023/04/15 10:18:20;;;;;;;15.63;14.93;;;14.70;99.90;;;;;;5151161;27;20463;-70
2023/04/15 10:20:48;;;;;;;16.07;15.33;;;14.80;99.90;;;;;;5151505;27;20818;-69
2023/04/15 10:23:16;;;;;;;15.57;14.87;;;15.10;99.90;;;;;;5151356;27;20472;-70
2023/04/15 10:25:43;;;;;;;15.07;14.47;;;15.00;99.90;;;;;;5151456;27;20491;-69
2023/04/15 10:28:11;;;;;;;15.00;14.40;;;15.30;99.90;;;;;;5151032;27;20554;-70
2023/04/15 10:30:39;;;;;;;15.67;14.97;;;15.20;99.90;;;;;;5150830;27;20458;-69
2023/04/15 10:33:09;;;;;;;17.07;16.17;;;15.20;99.90;;;;;;5150805;27;20455;-70
2023/04/15 10:35:38;;;;;;;17.17;16.30;;;14.60;99.90;;;;;;5151251;27;20483;-70
2023/04/15 10:38:32;;;;;;;15.93;15.13;;;13.90;99.90;;;;;;5151307;27;20451;-70
2023/04/15 10:41:13;;;;;;;16.07;15.30;;;14.10;99.90;;;;;;5151023;27;20451;-69
2023/04/15 10:43:46;;;;;;;17.30;16.10;;;14.10;99.90;;;;;;5142292;27;20487;-69
2023/04/15 10:46:19;;;;;;;15.47;14.67;;;13.90;99.90;;;;;;5150908;27;20455;-69
2023/04/15 10:48:51;;;;;;;14.73;13.80;;;13.60;99.90;;;;;;5150947;27;20804;-70
2023/04/15 10:51:28;;;;;;;15.33;14.60;;;14.20;99.90;;;;;;5150817;27;20866;-69
2023/04/15 10:53:58;;;;;;;15.40;14.60;;;15.00;99.90;;;;;;5150734;27;20475;-70
2023/04/15 10:56:25;;;;;;;15.33;14.30;;;15.40;99.90;;;;;;5137577;27;20462;-70
2023/04/15 10:58:53;;;;;;;15.90;15.20;;;16.10;99.90;;;;;;5144888;27;20532;-70
2023/04/15 11:01:23;;;;;;;15.57;14.87;;;16.30;99.90;;;;;;5150592;27;20481;-70
2023/04/15 11:03:50;;;;;;;14.87;14.20;;;16.50;99.90;;;;;;5149557;27;20909;-70
2023/04/15 11:06:17;;;;;;;15.40;14.63;;;16.70;99.90;;;;;;5150350;27;20805;-70
2023/04/15 11:08:57;;;;;;;16.53;15.63;;;16.20;99.90;;;;;;5149721;27;20463;-70
2023/04/15 11:11:59;;;;;;;16.17;15.37;;;16.00;99.90;;;;;;5139256;27;20497;-69
2023/04/15 11:14:26;;;;;;;16.47;15.67;;;15.90;99.90;;;;;;5137151;27;20724;-70
2023/04/15 11:16:54;;;;;;;15.90;14.47;;;15.70;99.90;;;;;;5148982;27;20515;-68
2023/04/15 11:19:21;;;;;;;16.10;15.30;;;15.80;99.90;;;;;;5149239;27;20470;-70
2023/04/15 11:21:48;;;;;;;15.30;14.50;;;15.40;99.90;;;;;;5148812;27;20463;-70
2023/04/15 11:24:26;;;;;;;17.47;15.67;;;15.10;99.90;;;;;;5149314;27;20497;-70
2023/04/15 11:26:57;;;;;;;14.70;14.10;;;15.00;99.90;;;;;;5149342;27;20562;-70
2023/04/15 11:29:30;;;;;;;15.07;14.37;;;15.10;99.90;;;;;;5148765;27;20447;-70
2023/04/15 11:32:06;;;;;;;14.50;13.90;;;15.40;99.90;;;;;;5143798;27;20458;-70
2023/04/15 11:34:34;;;;;;;14.90;14.30;;;15.40;99.90;;;;;;5149361;27;20455;-70
2023/04/15 11:37:04;;;;;;;16.13;15.33;;;15.70;99.90;;;;;;5148447;27;20487;-70
2023/04/15 11:39:32;;;;;;;15.50;14.80;;;16.00;99.90;;;;;;5149623;27;20861;-70
2023/04/15 11:41:58;;;;;;;15.33;14.63;;;15.70;99.90;;;;;;5139665;27;20456;-70
2023/04/15 11:44:25;;;;;;;15.00;14.30;;;15.70;99.90;;;;;;5144650;27;20602;-70
2023/04/15 11:46:52;;;;;;;14.73;14.13;;;15.30;99.90;;;;;;5148226;27;20488;-70
2023/04/15 11:49:32;;;;;;;15.33;14.63;;;15.80;99.90;;;;;;5148429;27;20463;-71
2023/04/15 11:52:00;;;;;;;16.20;15.50;;;15.70;99.90;;;;;;5149076;27;20462;-70
2023/04/15 11:54:27;;;;;;;16.40;15.53;;;16.00;99.90;;;;;;5148322;27;20560;-70
2023/04/15 11:56:55;;;;;;;15.73;15.03;;;16.00;99.90;;;;;;5149218;27;20534;-70
2023/04/15 11:59:22;;;;;;;16.27;15.50;;;15.40;99.90;;;;;;5152697;27;20566;-71
2023/04/15 12:01:51;;;;;;;15.73;14.83;;;15.10;99.90;;;;;;5152071;27;20451;-70
2023/04/15 12:04:20;;;;;;;16.97;15.90;;;15.20;99.90;;;;;;5138667;27;20479;-70
2023/04/15 12:06:49;;;;;;;15.60;14.90;;;14.70;99.90;;;;;;5152171;27;20571;-71
2023/04/15 12:09:17;;;;;;;15.10;14.40;;;14.50;99.90;;;;;;5152302;27;20806;-70
2023/04/15 12:11:46;;;;;;;15.70;15.00;;;14.60;99.90;;;;;;5152455;27;20481;-70
2023/04/15 12:14:20;;;;;;;16.50;15.60;;;14.60;99.90;;;;;;5151893;27;20467;-70
2023/04/15 12:16:48;;;;;;;16.40;15.50;;;14.30;99.90;;;;;;5152003;27;20695;-70
2023/04/15 12:19:18;;;;;;;15.90;15.10;;;14.60;99.90;;;;;;5151954;27;20550;-70
2023/04/15 12:21:46;;;;;;;16.40;15.60;;;14.50;99.90;;;;;;5152017;27;20451;-70
2023/04/15 12:24:15;;;;;;;15.90;15.10;;;14.40;99.90;;;;;;5151848;27;20475;-69
2023/04/15 12:26:46;;;;;;;15.90;15.10;;;14.60;99.90;;;;;;5152099;27;20483;-70
2023/04/15 12:29:15;;;;;;;17.10;15.70;;;14.40;99.90;;;;;;5151857;27;20952;-70
2023/04/15 12:31:51;;;;;;;16.73;15.87;;;14.60;99.90;;;;;;5151969;27;20844;-70
2023/04/15 12:34:19;;;;;;;16.50;15.60;;;14.70;99.90;;;;;;5152050;27;20767;-70
2023/04/15 12:36:46;;;;;;;18.27;17.10;;;14.90;99.90;;;;;;5151838;27;20573;-70
2023/04/15 12:39:14;;;;;;;16.90;16.00;;;14.40;99.90;;;;;;5151495;27;20463;-70
2023/04/15 12:41:41;;;;;;;16.03;15.10;;;14.20;99.90;;;;;;5151797;27;20498;-70
2023/04/15 12:44:08;;;;;;;14.70;14.00;;;13.80;99.90;;;;;;5151457;27;20570;-70